Time;durP1;ratioP1;P1;durP2;ratioP2;P2;SDS_P1;SDS_P2;PMS_P1;PMS_P2;Temp;Humidity;BMP_temperature;BMP_pressure;BME280_temperature;BME280_humidity;BME280_pressure;Samples;Min_cycle;Max_cycle;Signal;HPM_P1;HPM_P2
2021/10/28 00:12:13;;;;;;;21.83;11.98;;;;;;;;;;5051004;28;20136;-86
2021/10/28 00:14:46;;;;;;;18.30;10.05;;;;;;;;;;5055645;28;20133;-89
2021/10/28 00:17:24;;;;;;;24.48;11.35;;;;;;;;;;5043319;28;20131;-89
2021/10/28 00:19:55;;;;;;;22.23;11.82;;;;;;;;;;5046424;28;20076;-89
2021/10/28 00:22:22;;;;;;;22.35;11.32;;;;;;;;;;5061884;28;20226;-89
2021/10/28 00:25:00;;;;;;;24.33;11.55;;;;;;;;;;5051942;28;20127;-89
2021/10/28 00:27:27;;;;;;;19.83;10.32;;;;;;;;;;5052011;28;20045;-89
2021/10/28 00:29:54;;;;;;;20.77;11.32;;;;;;;;;;5042457;28;20942;-87
2021/10/28 00:32:28;;;;;;;18.83;11.13;;;;;;;;;;5038577;28;20147;-88
2021/10/28 00:34:57;;;;;;;20.63;10.20;;;;;;;;;;5054070;28;20467;-88
2021/10/28 00:37:26;;;;;;;19.77;10.75;;;;;;;;;;5042684;28;20426;-87
2021/10/28 00:39:53;;;;;;;19.95;10.50;;;;;;;;;;5048389;28;20080;-88
2021/10/28 00:42:21;;;;;;;18.40;9.98;;;;;;;;;;5040034;28;21724;-88
2021/10/28 00:47:36;;;;;;;18.27;10.38;;;;;;;;;;5008341;28;20132;-88
2021/10/28 00:50:04;;;;;;;20.55;10.60;;;;;;;;;;5009413;28;20103;-88
2021/10/28 00:52:33;;;;;;;18.70;10.27;;;;;;;;;;5008446;28;20180;-88
2021/10/28 00:55:01;;;;;;;21.50;10.23;;;;;;;;;;5011013;28;20112;-88
2021/10/28 00:57:31;;;;;;;13.82;9.13;;;;;;;;;;5012097;28;20137;-89
2021/10/28 00:59:59;;;;;;;17.63;8.95;;;;;;;;;;5008715;28;20146;-79
2021/10/28 01:02:26;;;;;;;19.38;10.05;;;;;;;;;;5008479;28;20562;-79
2021/10/28 01:04:53;;;;;;;20.75;9.52;;;;;;;;;;5007931;28;20156;-79
2021/10/28 01:07:21;;;;;;;28.00;10.70;;;;;;;;;;5006671;28;20060;-79
2021/10/28 01:09:48;;;;;;;25.20;8.98;;;;;;;;;;5007879;28;20053;-79
2021/10/28 01:12:15;;;;;;;17.27;8.48;;;;;;;;;;5003265;28;20176;-79
2021/10/28 01:14:44;;;;;;;19.92;9.65;;;;;;;;;;5001759;28;20057;-79
2021/10/28 01:17:11;;;;;;;20.70;9.20;;;;;;;;;;5000830;28;21822;-79
2021/10/28 01:19:38;;;;;;;18.40;8.48;;;;;;;;;;5005689;28;20124;-80
2021/10/28 01:22:06;;;;;;;24.05;9.80;;;;;;;;;;5006666;28;20148;-80
2021/10/28 01:24:33;;;;;;;16.15;8.98;;;;;;;;;;5007374;28;20140;-87
2021/10/28 01:27:08;;;;;;;19.77;9.93;;;;;;;;;;5012506;28;20138;-88
2021/10/28 01:33:03;;;;;;;16.60;8.70;;;;;;;;;;5019480;28;20988;-78
2021/10/28 01:35:31;;;;;;;17.13;9.27;;;;;;;;;;5023229;28;22530;-79
2021/10/28 01:37:58;;;;;;;21.58;9.25;;;;;;;;;;5024732;28;20839;-79
2021/10/28 01:40:25;;;;;;;19.50;8.90;;;;;;;;;;5009538;28;20439;-78
2021/10/28 01:42:52;;;;;;;17.85;8.77;;;;;;;;;;5009915;28;21858;-79
2021/10/28 01:45:20;;;;;;;28.10;9.00;;;;;;;;;;5027393;28;20051;-78
2021/10/28 01:47:48;;;;;;;18.48;9.00;;;;;;;;;;5007184;28;20613;-78
2021/10/28 01:50:16;;;;;;;25.90;9.00;;;;;;;;;;5005252;28;20438;-78
2021/10/28 01:52:43;;;;;;;18.38;8.15;;;;;;;;;;5024485;28;20453;-79
2021/10/28 01:55:11;;;;;;;15.95;7.45;;;;;;;;;;5009486;28;20558;-78
2021/10/28 01:57:39;;;;;;;18.27;7.72;;;;;;;;;;5004670;28;20049;-78
2021/10/28 02:00:24;;;;;;;11.65;6.55;;;;;;;;;;5024022;28;21013;-78
2021/10/28 02:02:52;;;;;;;12.95;7.15;;;;;;;;;;5029100;28;20068;-78
2021/10/28 02:05:21;;;;;;;17.63;8.32;;;;;;;;;;5009468;28;20071;-79
2021/10/28 02:07:49;;;;;;;14.88;6.75;;;;;;;;;;5014035;28;20155;-79
2021/10/28 02:10:17;;;;;;;15.65;8.05;;;;;;;;;;5015218;28;20132;-79
2021/10/28 02:12:48;;;;;;;14.48;7.10;;;;;;;;;;5016519;28;20144;-78
2021/10/28 02:15:17;;;;;;;15.30;6.88;;;;;;;;;;5031080;28;20387;-78
2021/10/28 02:17:44;;;;;;;12.15;6.53;;;;;;;;;;5032812;28;20496;-78
2021/10/28 02:20:12;;;;;;;15.35;7.07;;;;;;;;;;5032655;28;20235;-78
2021/10/28 02:22:42;;;;;;;13.70;6.75;;;;;;;;;;5037978;28;20750;-88
2021/10/28 02:25:10;;;;;;;13.40;6.50;;;;;;;;;;5021811;28;20791;-88
2021/10/28 02:27:37;;;;;;;14.05;6.68;;;;;;;;;;5021933;28;20068;-88
2021/10/28 02:30:05;;;;;;;14.13;7.07;;;;;;;;;;5015818;28;20163;-87
2021/10/28 02:32:33;;;;;;;11.63;6.32;;;;;;;;;;5012970;28;20088;-88
2021/10/28 02:35:08;;;;;;;13.02;6.30;;;;;;;;;;5019301;28;20048;-88
2021/10/28 02:37:37;;;;;;;;;;;;;;;;;;5038381;28;20476;-88
2021/10/28 02:40:10;;;;;;;14.13;6.80;;;;;;;;;;5034869;28;20015;-88
2021/10/28 02:42:38;;;;;;;13.55;6.68;;;;;;;;;;5033835;28;20045;-87
2021/10/28 02:45:06;;;;;;;12.25;7.18;;;;;;;;;;5034154;28;20076;-88
2021/10/28 02:47:33;;;;;;;12.68;6.45;;;;;;;;;;5020275;28;20945;-87
2021/10/28 02:50:03;;;;;;;18.08;7.28;;;;;;;;;;5018897;28;20059;-88
2021/10/28 02:52:30;;;;;;;22.13;8.35;;;;;;;;;;5036417;28;20049;-87
2021/10/28 02:54:58;;;;;;;18.27;7.88;;;;;;;;;;5021422;28;20779;-88
2021/10/28 02:57:25;;;;;;;14.40;7.22;;;;;;;;;;5026549;28;20137;-88
2021/10/28 02:59:59;;;;;;;15.35;7.97;;;;;;;;;;5037244;28;20760;-88
2021/10/28 03:02:26;;;;;;;17.85;8.23;;;;;;;;;;5024790;28;20549;-89
2021/10/28 03:04:54;;;;;;;16.85;8.27;;;;;;;;;;5025859;28;20068;-88
2021/10/28 03:07:21;;;;;;;19.20;7.47;;;;;;;;;;5020791;28;20068;-88
2021/10/28 03:09:48;;;;;;;14.57;7.95;;;;;;;;;;5035839;28;20049;-88
2021/10/28 03:12:16;;;;;;;17.08;8.00;;;;;;;;;;5038321;28;20112;-89
2021/10/28 03:14:53;;;;;;;15.85;8.25;;;;;;;;;;5041377;28;20049;-88
2021/10/28 03:28:17;;;;;;;21.15;8.63;;;;;;;;;;5036721;28;20486;-88
2021/10/28 03:30:45;;;;;;;17.83;8.63;;;;;;;;;;5022582;28;20547;-89
2021/10/28 03:33:18;;;;;;;22.98;8.88;;;;;;;;;;5034316;28;20416;-89
2021/10/28 03:35:49;;;;;;;19.90;9.27;;;;;;;;;;5027612;28;20135;-90
2021/10/28 03:38:21;;;;;;;22.58;9.10;;;;;;;;;;5033023;28;20148;-89
2021/10/28 03:43:54;;;;;;;27.65;9.45;;;;;;;;;;5040594;28;20044;-90
2021/10/28 03:46:45;;;;;;;24.02;10.27;;;;;;;;;;5041501;28;20073;-89
2021/10/28 04:03:32;;;;;;;23.13;10.15;;;;;;;;;;5032662;28;20132;-90
2021/10/28 04:08:18;;;;;;;22.35;10.50;;;;;;;;;;5029586;28;20080;-79
2021/10/28 04:19:22;;;;;;;25.70;9.90;;;;;;;;;;5039250;28;20141;-78
2021/10/28 04:29:51;;;;;;;19.55;9.30;;;;;;;;;;5037442;28;20457;-78
2021/10/28 04:32:18;;;;;;;27.27;10.45;;;;;;;;;;5026698;28;20140;-78
2021/10/28 04:34:45;;;;;;;37.97;13.32;;;;;;;;;;5024926;28;20155;-77
2021/10/28 04:37:13;;;;;;;20.90;9.93;;;;;;;;;;5013807;28;20055;-77
2021/10/28 04:39:40;;;;;;;29.52;11.35;;;;;;;;;;5035790;28;20053;-78
2021/10/28 04:42:07;;;;;;;19.65;9.80;;;;;;;;;;5038691;28;20139;-77
2021/10/28 04:44:35;;;;;;;26.58;11.40;;;;;;;;;;5025340;28;20355;-77
2021/10/28 04:47:02;;;;;;;23.48;11.63;;;;;;;;;;5032685;28;20059;-82
2021/10/28 04:49:30;;;;;;;21.92;11.05;;;;;;;;;;5023130;28;20057;-82
2021/10/28 04:51:57;;;;;;;20.50;10.88;;;;;;;;;;5027288;28;20049;-82
2021/10/28 04:54:25;;;;;;;23.10;10.65;;;;;;;;;;5027146;28;20472;-82
2021/10/28 04:56:53;;;;;;;29.55;11.52;;;;;;;;;;5029694;28;20083;-85
2021/10/28 04:59:20;;;;;;;29.10;11.77;;;;;;;;;;5020381;28;20490;-88
2021/10/28 05:01:47;;;;;;;24.60;10.40;;;;;;;;;;5009763;28;20124;-85
2021/10/28 05:04:15;;;;;;;29.15;11.90;;;;;;;;;;5029789;28;20098;-82
2021/10/28 05:06:43;;;;;;;30.27;12.25;;;;;;;;;;5024624;28;20072;-82
2021/10/28 05:09:11;;;;;;;23.13;11.88;;;;;;;;;;5003018;28;20049;-82
2021/10/28 05:11:39;;;;;;;29.17;12.07;;;;;;;;;;5002180;22;20049;-84
2021/10/28 05:14:06;;;;;;;24.83;11.55;;;;;;;;;;4977909;28;20901;-84
2021/10/28 05:16:33;;;;;;;28.55;12.30;;;;;;;;;;4985147;28;20144;-82
2021/10/28 05:19:02;;;;;;;33.15;12.60;;;;;;;;;;4999818;28;20136;-85
2021/10/28 05:21:29;;;;;;;35.42;12.57;;;;;;;;;;5022479;28;20046;-89
2021/10/28 05:23:57;;;;;;;32.97;13.07;;;;;;;;;;5002951;28;20057;-89
2021/10/28 05:26:24;;;;;;;34.17;13.85;;;;;;;;;;5023547;28;20146;-88
2021/10/28 05:28:51;;;;;;;28.55;14.90;;;;;;;;;;5010976;28;20783;-86
2021/10/28 05:31:21;;;;;;;31.40;14.98;;;;;;;;;;4989365;28;20045;-88
2021/10/28 05:36:49;;;;;;;43.63;15.98;;;;;;;;;;5074038;22;20127;-81
2021/10/28 05:39:19;;;;;;;35.88;15.20;;;;;;;;;;5069230;28;20393;-81
2021/10/28 05:41:47;;;;;;;33.85;14.68;;;;;;;;;;5075945;28;20062;-84
2021/10/28 05:44:14;;;;;;;36.38;14.98;;;;;;;;;;5076814;28;20048;-82
2021/10/28 05:46:41;;;;;;;32.78;13.90;;;;;;;;;;5075218;28;20133;-80
2021/10/28 05:49:08;;;;;;;31.55;14.60;;;;;;;;;;5073578;28;20567;-82
2021/10/28 05:51:37;;;;;;;42.00;15.25;;;;;;;;;;5071963;28;20078;-81
2021/10/28 05:54:05;;;;;;;34.70;14.73;;;;;;;;;;5075022;28;20078;-82
2021/10/28 05:56:32;;;;;;;34.85;14.82;;;;;;;;;;5072868;28;20669;-81
2021/10/28 05:58:59;;;;;;;35.67;15.52;;;;;;;;;;5087727;28;20137;-83
2021/10/28 06:01:26;;;;;;;35.15;14.38;;;;;;;;;;5074333;28;20093;-81
2021/10/28 06:03:54;;;;;;;36.95;15.13;;;;;;;;;;5071036;28;20052;-81
2021/10/28 06:06:21;;;;;;;33.00;15.20;;;;;;;;;;5071684;28;20048;-81
2021/10/28 06:08:48;;;;;;;32.58;14.77;;;;;;;;;;5067466;28;20130;-81
2021/10/28 06:11:16;;;;;;;47.67;18.25;;;;;;;;;;5067993;28;20048;-81
2021/10/28 06:13:46;;;;;;;37.70;16.70;;;;;;;;;;5073211;28;20143;-82
2021/10/28 06:16:13;;;;;;;36.85;16.02;;;;;;;;;;5069148;28;20086;-82
2021/10/28 06:18:45;;;;;;;42.95;15.27;;;;;;;;;;5085967;28;20171;-81
2021/10/28 06:21:12;;;;;;;31.52;15.23;;;;;;;;;;5072195;28;20056;-82
2021/10/28 06:23:46;;;;;;;36.88;17.38;;;;;;;;;;5076470;28;20392;-82
2021/10/28 06:26:13;;;;;;;35.38;16.23;;;;;;;;;;5079735;28;20508;-81
2021/10/28 06:28:43;;;;;;;46.45;15.88;;;;;;;;;;5094464;28;20788;-82
2021/10/28 06:31:10;;;;;;;44.50;18.83;;;;;;;;;;5073881;28;20074;-82
2021/10/28 06:33:45;;;;;;;35.33;15.32;;;;;;;;;;5075976;28;20050;-80
2021/10/28 06:36:13;;;;;;;;;;;;;;;;;;5094636;28;20174;-86
2021/10/28 06:38:40;;;;;;;41.20;16.50;;;;;;;;;;5074601;28;20295;-86
2021/10/28 06:41:09;;;;;;;58.42;28.00;;;;;;;;;;5076487;28;20052;-85
2021/10/28 06:43:37;;;;;;;39.33;16.55;;;;;;;;;;5074534;28;20048;-86
2021/10/28 06:46:04;;;;;;;43.22;17.48;;;;;;;;;;5096511;28;20758;-86
2021/10/28 06:48:36;;;;;;;38.03;18.90;;;;;;;;;;5083409;28;20446;-86
2021/10/28 06:51:07;;;;;;;39.55;18.85;;;;;;;;;;5106017;28;20047;-86
2021/10/28 06:53:43;;;;;;;44.35;17.08;;;;;;;;;;5104352;28;20762;-85
2021/10/28 06:56:34;;;;;;;36.85;17.63;;;;;;;;;;5076459;28;20656;-88
2021/10/28 07:04:34;;;;;;;46.78;18.00;;;;;;;;;;5108395;28;20139;-87
2021/10/28 07:07:01;;;;;;;51.97;19.20;;;;;;;;;;5109433;28;20071;-86
2021/10/28 07:09:33;;;;;;;38.10;17.92;;;;;;;;;;5080491;28;20082;-87
2021/10/28 07:12:10;;;;;;;41.22;18.35;;;;;;;;;;5091175;28;20111;-87
2021/10/28 07:14:40;;;;;;;40.58;17.55;;;;;;;;;;5091275;28;20142;-88
2021/10/28 07:19:53;;;;;;;43.78;18.15;;;;;;;;;;5101404;28;20094;-88
2021/10/28 07:22:34;;;;;;;48.70;18.85;;;;;;;;;;5088028;28;20785;-88
2021/10/28 07:25:22;;;;;;;37.38;17.30;;;;;;;;;;5086490;28;20067;-86
2021/10/28 07:28:01;;;;;;;36.83;16.52;;;;;;;;;;5096522;28;20066;-87
2021/10/28 07:30:40;;;;;;;41.53;16.73;;;;;;;;;;5095696;28;20081;-86
2021/10/28 07:33:36;;;;;;;39.72;17.20;;;;;;;;;;5113306;28;20157;-85
2021/10/28 07:55:38;;;;;;;42.80;17.10;;;;;;;;;;5114271;28;19923;-92
2021/10/28 08:14:25;;;;;;;34.83;15.90;;;;;;;;;;5093651;28;20068;-92
2021/10/28 08:30:12;;;;;;;30.00;13.88;;;;;;;;;;5090514;28;20086;-90
2021/10/28 08:32:40;;;;;;;30.90;13.93;;;;;;;;;;5073387;28;20123;-91
2021/10/28 08:35:29;;;;;;;32.25;14.65;;;;;;;;;;5070013;28;20056;-91
2021/10/28 08:37:59;;;;;;;27.25;14.00;;;;;;;;;;5072305;28;20147;-91
2021/10/28 08:40:28;;;;;;;39.47;14.35;;;;;;;;;;5073428;28;20405;-91
2021/10/28 08:43:03;;;;;;;34.22;14.15;;;;;;;;;;5057305;28;20056;-92
2021/10/28 08:45:35;;;;;;;26.15;13.15;;;;;;;;;;5079172;28;20091;-91
2021/10/28 08:48:05;;;;;;;30.45;13.35;;;;;;;;;;5076919;28;20044;-89
2021/10/28 08:50:41;;;;;;;22.65;12.65;;;;;;;;;;5091795;28;20044;-91
2021/10/28 08:56:13;;;;;;;26.05;13.40;;;;;;;;;;5054626;28;20485;-92
2021/10/28 09:24:25;;;;;;;31.42;14.05;;;;;;;;;;5091453;28;20192;-81
2021/10/28 09:27:02;;;;;;;19.60;10.52;;;;;;;;;;5068111;28;20078;-81
2021/10/28 09:29:52;;;;;;;22.60;11.55;;;;;;;;;;5063973;28;20070;-81
2021/10/28 09:43:56;;;;;;;22.27;10.32;;;;;;;;;;5085212;28;20056;-82
2021/10/28 09:59:33;;;;;;;14.55;8.68;;;;;;;;;;5084845;28;20128;-82
2021/10/28 10:02:12;;;;;;;17.20;8.85;;;;;;;;;;5081392;28;20040;-80
2021/10/28 10:04:41;;;;;;;15.20;8.68;;;;;;;;;;5071692;28;20047;-81
2021/10/28 10:07:18;;;;;;;16.85;8.93;;;;;;;;;;5069365;28;20064;-84
2021/10/28 10:09:46;;;;;;;18.77;9.90;;;;;;;;;;5065183;28;20409;-81
2021/10/28 10:12:14;;;;;;;26.65;10.40;;;;;;;;;;5065998;28;20119;-81
2021/10/28 10:14:43;;;;;;;22.73;11.13;;;;;;;;;;5072258;28;20443;-81
2021/10/28 10:17:11;;;;;;;23.08;10.60;;;;;;;;;;5069582;28;20163;-81
2021/10/28 10:19:42;;;;;;;17.27;8.55;;;;;;;;;;5066145;28;20070;-81
2021/10/28 10:24:58;;;;;;;17.65;7.80;;;;;;;;;;5091387;28;20055;-79
2021/10/28 11:28:14;;;;;;;10.98;4.90;;;;;;;;;;5085215;28;20086;-79
2021/10/28 12:16:08;;;;;;;7.97;4.15;;;;;;;;;;5075842;28;20123;-81
2021/10/28 12:23:53;;;;;;;9.93;4.47;;;;;;;;;;5087374;28;20091;-82
2021/10/28 12:44:24;;;;;;;10.75;4.55;;;;;;;;;;5076785;28;20458;-85
2021/10/28 12:47:14;;;;;;;14.57;5.82;;;;;;;;;;5063543;28;20569;-85
2021/10/28 12:50:05;;;;;;;10.80;4.40;;;;;;;;;;5065405;28;20492;-86
2021/10/28 14:17:12;;;;;;;8.75;4.30;;;;;;;;;;5086752;28;20084;-84
2021/10/28 14:22:17;;;;;;;;;;;;;;;;;;5089398;28;20147;-83
2021/10/28 14:39:03;;;;;;;8.65;4.20;;;;;;;;;;5083395;28;20082;-83
2021/10/28 15:01:39;;;;;;;9.88;5.55;;;;;;;;;;5088366;28;20056;-85
2021/10/28 15:29:07;;;;;;;11.93;6.97;;;;;;;;;;5089008;28;20549;-82
2021/10/28 15:39:59;;;;;;;13.63;6.85;;;;;;;;;;5079287;28;20074;-88
2021/10/28 16:21:54;;;;;;;11.60;6.10;;;;;;;;;;5083277;28;20127;-83
2021/10/28 16:24:26;;;;;;;21.52;7.40;;;;;;;;;;5073276;28;20064;-83
2021/10/28 16:26:56;;;;;;;14.60;7.55;;;;;;;;;;5064249;28;20071;-83
2021/10/28 16:29:28;;;;;;;10.75;6.95;;;;;;;;;;5063030;28;20401;-83
2021/10/28 16:31:59;;;;;;;15.00;6.93;;;;;;;;;;5058632;28;20094;-83
2021/10/28 16:34:31;;;;;;;12.77;7.40;;;;;;;;;;5057465;28;20094;-84
2021/10/28 16:37:00;;;;;;;19.25;8.38;;;;;;;;;;5067499;28;20676;-83
2021/10/28 16:39:33;;;;;;;22.17;8.35;;;;;;;;;;5062664;28;20044;-86
2021/10/28 16:42:03;;;;;;;17.60;9.45;;;;;;;;;;5065053;28;20102;-85
2021/10/28 16:44:30;;;;;;;20.17;8.95;;;;;;;;;;5075899;28;20139;-85
2021/10/28 16:47:02;;;;;;;16.63;9.68;;;;;;;;;;5081285;28;20048;-87
2021/10/28 16:49:29;;;;;;;19.65;9.35;;;;;;;;;;5081147;28;20113;-85
2021/10/28 16:52:00;;;;;;;17.13;9.70;;;;;;;;;;5069029;28;20711;-86
2021/10/28 16:54:31;;;;;;;18.23;9.38;;;;;;;;;;5067331;28;20049;-86
2021/10/28 16:56:58;;;;;;;19.60;9.48;;;;;;;;;;5067310;28;20560;-87
2021/10/28 16:59:25;;;;;;;17.10;9.73;;;;;;;;;;5090763;28;20040;-87
2021/10/28 17:01:53;;;;;;;17.33;9.70;;;;;;;;;;5070527;28;20679;-85
2021/10/28 17:04:21;;;;;;;20.67;10.43;;;;;;;;;;5057709;28;20048;-87
2021/10/28 17:06:51;;;;;;;20.70;9.68;;;;;;;;;;5072299;28;20731;-86
2021/10/28 17:09:19;;;;;;;21.20;10.13;;;;;;;;;;5065029;28;20067;-86
2021/10/28 17:11:46;;;;;;;19.15;10.10;;;;;;;;;;5060258;28;20068;-86
2021/10/28 17:14:13;;;;;;;21.67;10.80;;;;;;;;;;5070147;28;20087;-86
2021/10/28 17:16:46;;;;;;;24.38;10.82;;;;;;;;;;5064390;28;20048;-86
2021/10/28 17:19:17;;;;;;;16.95;9.68;;;;;;;;;;5070833;28;20488;-87
2021/10/28 17:21:45;;;;;;;17.38;9.43;;;;;;;;;;5061137;28;20120;-87
2021/10/28 17:24:49;;;;;;;22.25;10.32;;;;;;;;;;5084506;28;20089;-88
2021/10/28 17:27:08;;;;;;;18.88;10.55;;;;;;;;;;5079219;28;20076;-91
2021/10/28 17:29:42;;;;;;;19.50;9.35;;;;;;;;;;5078667;28;20055;-87
2021/10/28 17:32:10;;;;;;;18.30;10.35;;;;;;;;;;5069952;28;20044;-85
2021/10/28 17:34:37;;;;;;;21.13;10.45;;;;;;;;;;5077934;28;20056;-86
2021/10/28 17:37:05;;;;;;;15.77;9.52;;;;;;;;;;5057779;28;20090;-88
2021/10/28 17:39:34;;;;;;;19.10;10.55;;;;;;;;;;5088795;28;20744;-91
2021/10/28 17:42:02;;;;;;;21.55;10.77;;;;;;;;;;5063087;28;20135;-89
2021/10/28 17:44:42;;;;;;;18.98;10.30;;;;;;;;;;5080654;28;20566;-89
2021/10/28 17:47:11;;;;;;;17.70;11.38;;;;;;;;;;5057372;28;20048;-85
2021/10/28 17:49:47;;;;;;;22.95;10.88;;;;;;;;;;5089608;28;20159;-87
2021/10/28 17:52:35;;;;;;;18.05;10.80;;;;;;;;;;5072191;28;20044;-87
2021/10/28 17:55:03;;;;;;;19.00;11.40;;;;;;;;;;5067639;28;20159;-86
2021/10/28 17:57:30;;;;;;;19.17;11.27;;;;;;;;;;5061672;28;20071;-86
2021/10/28 17:59:58;;;;;;;20.33;10.98;;;;;;;;;;5065325;28;20115;-85
2021/10/28 18:02:26;;;;;;;27.05;12.27;;;;;;;;;;5079346;28;20051;-88
2021/10/28 18:04:53;;;;;;;19.38;10.63;;;;;;;;;;5077649;28;20619;-87
2021/10/28 18:07:21;;;;;;;26.13;11.65;;;;;;;;;;5059367;28;20123;-87
2021/10/28 18:09:49;;;;;;;25.30;10.90;;;;;;;;;;5082326;28;20080;-85
2021/10/28 18:12:18;;;;;;;17.35;10.77;;;;;;;;;;5062637;28;20139;-86
2021/10/28 18:14:45;;;;;;;21.67;12.57;;;;;;;;;;5062461;28;20468;-86
2021/10/28 18:17:14;;;;;;;23.48;12.85;;;;;;;;;;5063782;28;21332;-85
2021/10/28 18:19:43;;;;;;;25.52;13.50;;;;;;;;;;5065710;28;20048;-86
2021/10/28 18:22:10;;;;;;;23.38;13.38;;;;;;;;;;5061339;28;20048;-85
2021/10/28 18:24:39;;;;;;;20.45;11.68;;;;;;;;;;5065828;28;20044;-85
2021/10/28 18:27:08;;;;;;;20.73;11.73;;;;;;;;;;5060492;28;20128;-86
2021/10/28 18:30:03;;;;;;;16.17;10.25;;;;;;;;;;5060918;28;20099;-85
2021/10/28 18:32:30;;;;;;;21.75;10.88;;;;;;;;;;5063686;28;20139;-81
2021/10/28 18:34:58;;;;;;;19.08;10.20;;;;;;;;;;5059748;28;20676;-81
2021/10/28 18:37:26;;;;;;;18.00;10.65;;;;;;;;;;5063684;28;20455;-82
2021/10/28 18:39:53;;;;;;;20.77;10.75;;;;;;;;;;5057553;28;20536;-80
2021/10/28 18:42:20;;;;;;;19.65;11.43;;;;;;;;;;5084836;28;20158;-81
2021/10/28 18:44:47;;;;;;;18.35;9.98;;;;;;;;;;5082133;28;20126;-80
2021/10/28 18:47:15;;;;;;;21.63;10.10;;;;;;;;;;5064378;28;20044;-80
2021/10/28 18:49:43;;;;;;;25.08;10.52;;;;;;;;;;5065591;28;20048;-81
2021/10/28 18:52:11;;;;;;;18.60;9.98;;;;;;;;;;5088874;28;20131;-81
2021/10/28 18:54:38;;;;;;;18.60;9.82;;;;;;;;;;5071407;28;20143;-80
2021/10/28 18:57:07;;;;;;;17.95;9.98;;;;;;;;;;5066465;28;20071;-81
2021/10/28 18:59:35;;;;;;;19.80;9.25;;;;;;;;;;5071383;28;20647;-81
2021/10/28 19:02:02;;;;;;;13.65;8.88;;;;;;;;;;5069174;28;20135;-80
2021/10/28 19:04:30;;;;;;;17.17;9.18;;;;;;;;;;5070029;28;20059;-81
2021/10/28 19:06:58;;;;;;;18.88;9.93;;;;;;;;;;5074381;28;20076;-85
2021/10/28 19:09:25;;;;;;;17.50;9.45;;;;;;;;;;5066281;28;20437;-85
2021/10/28 19:11:52;;;;;;;23.42;9.90;;;;;;;;;;5084836;28;20119;-85
2021/10/28 19:14:19;;;;;;;20.77;9.90;;;;;;;;;;5067208;28;20048;-85
2021/10/28 19:16:46;;;;;;;22.45;9.77;;;;;;;;;;5063928;28;20993;-85
2021/10/28 19:19:14;;;;;;;19.08;9.82;;;;;;;;;;5081009;28;20056;-85
2021/10/28 19:21:49;;;;;;;19.70;10.00;;;;;;;;;;5070576;28;20075;-85
2021/10/28 19:27:20;;;;;;;16.13;9.63;;;;;;;;;;5089999;28;19971;-84
2021/10/28 19:29:56;;;;;;;22.67;12.07;;;;;;;;;;5063933;28;20048;-85
2021/10/28 19:32:25;;;;;;;24.70;10.00;;;;;;;;;;5066502;28;20667;-88
2021/10/28 19:34:54;;;;;;;21.02;10.13;;;;;;;;;;5073430;28;20044;-84
2021/10/28 19:37:43;;;;;;;18.92;9.70;;;;;;;;;;5071448;28;20070;-83
2021/10/28 19:47:42;;;;;;;18.10;10.18;;;;;;;;;;5086189;28;20076;-83
2021/10/28 19:50:13;;;;;;;21.27;11.10;;;;;;;;;;5081758;28;20131;-84
2021/10/28 19:52:41;;;;;;;21.45;11.90;;;;;;;;;;5070938;28;20059;-85
2021/10/28 19:55:09;;;;;;;21.55;11.27;;;;;;;;;;5072433;28;20134;-85
2021/10/28 19:57:39;;;;;;;20.20;10.85;;;;;;;;;;5093062;28;20078;-87
2021/10/28 20:06:26;;;;;;;27.85;11.13;;;;;;;;;;5080250;28;20055;-81
2021/10/28 20:14:31;;;;;;;24.13;11.77;;;;;;;;;;5075940;28;20049;-80
2021/10/28 20:22:20;;;;;;;25.67;12.30;;;;;;;;;;5084595;28;20607;-79
2021/10/28 20:24:48;;;;;;;23.10;11.10;;;;;;;;;;5065700;28;20044;-80
2021/10/28 20:27:15;;;;;;;27.52;11.73;;;;;;;;;;5087093;28;20194;-80
2021/10/28 20:29:43;;;;;;;20.73;11.90;;;;;;;;;;5083738;28;20067;-85
2021/10/28 20:32:10;;;;;;;25.65;12.20;;;;;;;;;;5074512;28;20463;-86
2021/10/28 20:37:27;;;;;;;25.42;11.57;;;;;;;;;;5089741;28;20123;-85
2021/10/28 20:39:54;;;;;;;24.60;11.38;;;;;;;;;;5071248;28;20072;-86
2021/10/28 20:42:21;;;;;;;22.58;12.63;;;;;;;;;;5086573;28;20548;-87
2021/10/28 20:44:52;;;;;;;20.45;10.77;;;;;;;;;;5073513;28;20639;-86
2021/10/28 20:47:20;;;;;;;24.20;11.50;;;;;;;;;;5092480;28;20082;-85
2021/10/28 20:49:47;;;;;;;27.85;12.93;;;;;;;;;;5074469;28;20079;-86
2021/10/28 20:52:14;;;;;;;22.30;12.23;;;;;;;;;;5074866;28;20127;-86
2021/10/28 20:54:41;;;;;;;27.23;12.05;;;;;;;;;;5058620;28;20520;-86
2021/10/28 20:57:08;;;;;;;22.73;11.30;;;;;;;;;;5090491;28;20155;-85
2021/10/28 20:59:36;;;;;;;25.13;13.27;;;;;;;;;;5054588;28;20102;-85
2021/10/28 21:02:03;;;;;;;28.17;12.73;;;;;;;;;;5080634;28;20132;-86
2021/10/28 21:04:38;;;;;;;25.52;13.30;;;;;;;;;;5081910;28;20052;-86
2021/10/28 21:07:05;;;;;;;25.65;11.85;;;;;;;;;;5084922;28;20053;-80
2021/10/28 21:09:33;;;;;;;30.02;13.55;;;;;;;;;;5091552;28;20460;-81
2021/10/28 21:12:01;;;;;;;24.38;12.55;;;;;;;;;;5102050;28;20083;-81
2021/10/28 21:14:28;;;;;;;25.60;12.98;;;;;;;;;;5069679;28;20072;-83
2021/10/28 21:16:55;;;;;;;29.90;13.38;;;;;;;;;;5080791;28;20123;-82
2021/10/28 21:19:22;;;;;;;25.92;12.75;;;;;;;;;;5085777;28;20048;-82
2021/10/28 21:21:51;;;;;;;23.67;12.93;;;;;;;;;;5083305;28;20076;-82
2021/10/28 21:24:21;;;;;;;26.65;12.40;;;;;;;;;;5068057;28;20091;-82
2021/10/28 21:26:48;;;;;;;25.42;12.45;;;;;;;;;;5056660;28;20080;-80
2021/10/28 21:29:15;;;;;;;26.15;13.45;;;;;;;;;;5085997;28;20079;-80
2021/10/28 21:31:42;;;;;;;23.90;12.45;;;;;;;;;;5073369;28;20058;-80
2021/10/28 21:34:10;;;;;;;25.20;12.57;;;;;;;;;;5065186;28;20141;-80
2021/10/28 21:36:38;;;;;;;28.45;12.52;;;;;;;;;;5061248;28;20094;-81
2021/10/28 21:39:05;;;;;;;28.30;13.05;;;;;;;;;;5086393;28;20052;-80
2021/10/28 21:41:32;;;;;;;27.50;13.88;;;;;;;;;;5056381;28;20237;-80
2021/10/28 21:44:00;;;;;;;26.30;13.57;;;;;;;;;;5082319;28;20139;-80
2021/10/28 21:46:31;;;;;;;27.20;13.35;;;;;;;;;;5053508;28;20438;-81
2021/10/28 21:48:58;;;;;;;23.80;12.80;;;;;;;;;;5085015;28;20717;-81
2021/10/28 21:51:26;;;;;;;25.80;12.45;;;;;;;;;;5068655;28;20461;-87
2021/10/28 21:53:54;;;;;;;28.75;13.30;;;;;;;;;;5068760;28;20131;-87
2021/10/28 21:56:39;;;;;;;27.73;13.73;;;;;;;;;;5056153;28;20519;-87
2021/10/28 22:02:06;;;;;;;31.55;13.65;;;;;;;;;;5082725;28;20079;-81
2021/10/28 22:04:57;;;;;;;26.98;14.40;;;;;;;;;;5063570;28;20048;-81
2021/10/28 22:27:12;;;;;;;35.17;15.32;;;;;;;;;;5044318;28;20044;-87
2021/10/28 22:29:39;;;;;;;29.15;14.85;;;;;;;;;;5056388;28;20484;-87
2021/10/28 22:32:06;;;;;;;30.48;14.63;;;;;;;;;;5086390;28;20139;-87
2021/10/28 22:34:34;;;;;;;34.22;15.52;;;;;;;;;;5089913;28;20124;-82
2021/10/28 22:42:33;;;;;;;35.45;14.65;;;;;;;;;;5074325;28;20091;-82
2021/10/28 22:45:01;;;;;;;35.70;14.57;;;;;;;;;;5077460;22;20556;-82
2021/10/28 22:47:29;;;;;;;35.03;16.10;;;;;;;;;;5077218;28;20048;-86
2021/10/28 22:49:58;;;;;;;31.45;15.10;;;;;;;;;;5076671;28;20129;-86
2021/10/28 22:52:28;;;;;;;40.97;16.35;;;;;;;;;;5076274;28;20113;-87
2021/10/28 22:55:07;;;;;;;38.03;17.00;;;;;;;;;;5076599;28;20095;-82
2021/10/28 22:57:46;;;;;;;35.53;15.82;;;;;;;;;;5088247;28;20075;-82
2021/10/28 23:15:59;;;;;;;38.67;16.00;;;;;;;;;;5105022;28;20204;-86
2021/10/28 23:21:12;;;;;;;35.13;16.65;;;;;;;;;;5104553;28;20484;-87
2021/10/28 23:23:40;;;;;;;34.97;17.63;;;;;;;;;;5114275;28;20043;-87
2021/10/28 23:26:07;;;;;;;39.50;18.00;;;;;;;;;;5096240;28;20136;-82
2021/10/28 23:28:34;;;;;;;44.72;18.40;;;;;;;;;;5095050;28;20043;-84
2021/10/28 23:31:02;;;;;;;38.83;17.98;;;;;;;;;;5091131;28;20087;-87
2021/10/28 23:33:29;;;;;;;41.05;19.73;;;;;;;;;;5094559;28;20101;-87
2021/10/28 23:36:01;;;;;;;32.50;17.70;;;;;;;;;;5093056;28;20710;-87
2021/10/28 23:38:28;;;;;;;40.92;17.48;;;;;;;;;;5095254;28;20464;-86
2021/10/28 23:40:56;;;;;;;35.30;17.80;;;;;;;;;;5083630;28;20062;-86
2021/10/28 23:43:24;;;;;;;49.63;19.38;;;;;;;;;;5095926;28;20043;-86
2021/10/28 23:45:51;;;;;;;42.50;18.85;;;;;;;;;;5095269;28;20048;-85
2021/10/28 23:48:19;;;;;;;45.85;20.00;;;;;;;;;;5091414;28;20036;-87
2021/10/28 23:50:46;;;;;;;46.65;18.08;;;;;;;;;;5090306;28;20118;-86
2021/10/28 23:53:14;;;;;;;36.97;17.38;;;;;;;;;;5095347;28;20770;-87
2021/10/28 23:55:41;;;;;;;37.45;17.40;;;;;;;;;;5094370;28;20131;-87
2021/10/28 23:58:08;;;;;;;46.42;18.55;;;;;;;;;;5087409;28;20138;-83
